sensor_id;sensor_type;location;lat;lon;timestamp;pressure;altitude;pressure_sealevel;temperature;humidity
61484;BME280;47349;55.640;37.692;2022-08-19T00:00:55;99828.88;;;22.75;50.06
61484;BME280;47349;55.640;37.692;2022-08-19T00:03:38;99819.47;;;22.66;50.45
61484;BME280;47349;55.640;37.692;2022-08-19T00:06:37;99821.03;;;22.62;50.99
61484;BME280;47349;55.640;37.692;2022-08-19T00:09:20;99824.09;;;22.65;50.77
61484;BME280;47349;55.640;37.692;2022-08-19T00:11:49;99836.44;;;22.68;50.98
61484;BME280;47349;55.640;37.692;2022-08-19T00:14:30;99838.25;;;22.62;51.30
61484;BME280;47349;55.640;37.692;2022-08-19T00:16:59;99831.75;;;22.63;51.48
61484;BME280;47349;55.640;37.692;2022-08-19T00:19:40;99830.25;;;22.55;51.24
61484;BME280;47349;55.640;37.692;2022-08-19T00:22:12;99842.06;;;22.61;51.49
61484;BME280;47349;55.640;37.692;2022-08-19T00:24:54;99848.63;;;22.60;51.42
61484;BME280;47349;55.640;37.692;2022-08-19T00:27:36;99844.47;;;22.57;51.37
61484;BME280;47349;55.640;37.692;2022-08-19T00:30:57;99835.31;;;22.47;50.98
61484;BME280;47349;55.640;37.692;2022-08-19T00:33:39;99849.38;;;22.55;50.83
61484;BME280;47349;55.640;37.692;2022-08-19T00:36:22;99851.00;;;22.56;50.55
61484;BME280;47349;55.640;37.692;2022-08-19T00:39:05;99855.91;;;22.54;50.57
61484;BME280;47349;55.640;37.692;2022-08-19T00:41:47;99854.28;;;22.53;51.12
61484;BME280;47349;55.640;37.692;2022-08-19T00:44:31;99849.28;;;22.50;50.64
61484;BME280;47349;55.640;37.692;2022-08-19T00:47:01;99859.06;;;22.46;50.71
61484;BME280;47349;55.640;37.692;2022-08-19T00:49:56;99850.22;;;22.39;50.29
61484;BME280;47349;55.640;37.692;2022-08-19T00:52:42;99851.13;;;22.28;50.46
61484;BME280;47349;55.640;37.692;2022-08-19T00:55:31;99866.00;;;22.37;50.47
61484;BME280;47349;55.640;37.692;2022-08-19T00:58:02;99870.91;;;22.35;50.38
61484;BME280;47349;55.640;37.692;2022-08-19T01:00:47;99879.09;;;22.35;50.69
61484;BME280;47349;55.640;37.692;2022-08-19T01:03:25;99883.66;;;22.29;50.46
61484;BME280;47349;55.640;37.692;2022-08-19T01:06:20;99890.50;;;22.32;50.79
61484;BME280;47349;55.640;37.692;2022-08-19T01:09:04;99891.03;;;22.29;50.76
61484;BME280;47349;55.640;37.692;2022-08-19T01:11:45;99883.72;;;22.18;51.09
61484;BME280;47349;55.640;37.692;2022-08-19T01:14:33;99892.72;;;22.18;51.10
61484;BME280;47349;55.640;37.692;2022-08-19T01:17:20;99877.91;;;22.14;51.09
61484;BME280;47349;55.640;37.692;2022-08-19T01:20:22;99879.97;;;22.07;51.59
61484;BME280;47349;55.640;37.692;2022-08-19T01:22:57;99882.84;;;22.00;51.32
61484;BME280;47349;55.640;37.692;2022-08-19T01:25:50;99858.09;;;21.90;51.48
61484;BME280;47349;55.640;37.692;2022-08-19T01:28:33;99895.25;;;22.08;51.60
61484;BME280;47349;55.640;37.692;2022-08-19T01:31:18;99884.50;;;22.01;51.23
61484;BME280;47349;55.640;37.692;2022-08-19T01:33:56;99849.22;;;21.83;51.22
61484;BME280;47349;55.640;37.692;2022-08-19T01:39:22;99850.34;;;21.70;51.03
61484;BME280;47349;55.640;37.692;2022-08-19T01:42:04;99854.81;;;21.60;51.16
61484;BME280;47349;55.640;37.692;2022-08-19T01:44:48;99855.50;;;21.67;51.32
61484;BME280;47349;55.640;37.692;2022-08-19T01:47:29;99852.31;;;21.58;51.33
61484;BME280;47349;55.640;37.692;2022-08-19T01:50:12;99835.31;;;21.39;51.65
61484;BME280;47349;55.640;37.692;2022-08-19T01:52:43;99837.22;;;21.39;51.54
61484;BME280;47349;55.640;37.692;2022-08-19T01:55:24;99840.41;;;21.47;51.52
61484;BME280;47349;55.640;37.692;2022-08-19T01:57:55;99809.25;;;21.32;51.46
61484;BME280;47349;55.640;37.692;2022-08-19T02:00:30;99807.53;;;21.14;51.76
61484;BME280;47349;55.640;37.692;2022-08-19T02:03:13;99853.34;;;21.28;52.21
61484;BME280;47349;55.640;37.692;2022-08-19T02:05:59;99871.34;;;21.29;52.50
61484;BME280;47349;55.640;37.692;2022-08-19T02:08:46;99880.38;;;21.30;52.38
61484;BME280;47349;55.640;37.692;2022-08-19T02:11:49;99874.91;;;21.30;52.25
61484;BME280;47349;55.640;37.692;2022-08-19T02:15:13;99887.38;;;21.38;53.03
61484;BME280;47349;55.640;37.692;2022-08-19T02:18:27;99891.75;;;21.39;52.97
61484;BME280;47349;55.640;37.692;2022-08-19T02:21:08;99885.47;;;21.38;52.75
61484;BME280;47349;55.640;37.692;2022-08-19T02:23:54;99883.47;;;21.34;52.62
61484;BME280;47349;55.640;37.692;2022-08-19T02:26:56;99887.13;;;21.39;52.74
61484;BME280;47349;55.640;37.692;2022-08-19T02:29:29;99877.53;;;21.37;52.71
61484;BME280;47349;55.640;37.692;2022-08-19T02:32:03;99897.94;;;21.34;52.91
61484;BME280;47349;55.640;37.692;2022-08-19T02:34:40;99898.50;;;21.36;53.03
61484;BME280;47349;55.640;37.692;2022-08-19T02:38:04;99894.75;;;21.37;52.72
61484;BME280;47349;55.640;37.692;2022-08-19T02:41:03;99895.69;;;21.31;53.03
61484;BME280;47349;55.640;37.692;2022-08-19T02:43:45;99897.81;;;21.29;53.10
61484;BME280;47349;55.640;37.692;2022-08-19T02:46:37;99859.31;;;21.14;52.48
61484;BME280;47349;55.640;37.692;2022-08-19T02:49:20;99878.72;;;21.17;52.80
61484;BME280;47349;55.640;37.692;2022-08-19T02:52:02;99897.19;;;21.27;52.74
61484;BME280;47349;55.640;37.692;2022-08-19T02:54:38;99910.00;;;21.26;53.14
61484;BME280;47349;55.640;37.692;2022-08-19T02:57:10;99912.72;;;21.26;53.26
61484;BME280;47349;55.640;37.692;2022-08-19T02:59:55;99898.41;;;21.19;52.97
61484;BME280;47349;55.640;37.692;2022-08-19T03:02:36;99901.59;;;21.16;53.44
61484;BME280;47349;55.640;37.692;2022-08-19T03:05:17;99901.25;;;21.13;53.02
61484;BME280;47349;55.640;37.692;2022-08-19T03:08:08;99903.03;;;21.07;53.23
61484;BME280;47349;55.640;37.692;2022-08-19T03:10:45;99913.22;;;21.12;53.06
61484;BME280;47349;55.640;37.692;2022-08-19T03:13:26;99909.94;;;21.10;53.49
61484;BME280;47349;55.640;37.692;2022-08-19T03:16:32;99918.56;;;21.07;53.66
61484;BME280;47349;55.640;37.692;2022-08-19T03:19:24;99906.25;;;21.04;53.29
61484;BME280;47349;55.640;37.692;2022-08-19T03:22:05;99913.63;;;21.03;53.77
61484;BME280;47349;55.640;37.692;2022-08-19T03:25:12;99916.34;;;21.03;53.88
61484;BME280;47349;55.640;37.692;2022-08-19T03:28:53;99916.34;;;21.03;54.14
61484;BME280;47349;55.640;37.692;2022-08-19T03:31:26;99914.91;;;21.01;54.29
61484;BME280;47349;55.640;37.692;2022-08-19T03:35:11;99907.91;;;21.05;54.43
61484;BME280;47349;55.640;37.692;2022-08-19T03:40:00;99913.13;;;21.07;54.55
61484;BME280;47349;55.640;37.692;2022-08-19T03:43:20;99901.63;;;21.04;54.45
61484;BME280;47349;55.640;37.692;2022-08-19T03:46:10;99904.00;;;21.01;53.99
61484;BME280;47349;55.640;37.692;2022-08-19T03:48:54;99908.28;;;20.85;54.44
61484;BME280;47349;55.640;37.692;2022-08-19T03:51:38;99907.34;;;20.91;54.76
61484;BME280;47349;55.640;37.692;2022-08-19T03:54:24;99911.81;;;20.97;54.91
61484;BME280;47349;55.640;37.692;2022-08-19T03:57:06;99923.44;;;21.04;54.77
61484;BME280;47349;55.640;37.692;2022-08-19T03:59:51;99916.06;;;21.17;54.43
61484;BME280;47349;55.640;37.692;2022-08-19T04:02:44;99922.59;;;21.27;54.09
61484;BME280;47349;55.640;37.692;2022-08-19T04:06:44;99909.41;;;21.36;54.22
61484;BME280;47349;55.640;37.692;2022-08-19T04:09:15;99923.31;;;21.35;54.05
61484;BME280;47349;55.640;37.692;2022-08-19T04:11:57;99923.66;;;21.38;54.26
61484;BME280;47349;55.640;37.692;2022-08-19T04:14:39;99928.13;;;21.44;54.15
61484;BME280;47349;55.640;37.692;2022-08-19T04:17:29;99920.22;;;21.43;54.20
61484;BME280;47349;55.640;37.692;2022-08-19T04:19:59;99927.94;;;21.34;54.25
61484;BME280;47349;55.640;37.692;2022-08-19T04:22:43;99913.22;;;21.35;54.07
61484;BME280;47349;55.640;37.692;2022-08-19T04:25:26;99930.16;;;21.49;53.86
61484;BME280;47349;55.640;37.692;2022-08-19T04:28:12;99908.56;;;21.47;53.88
61484;BME280;47349;55.640;37.692;2022-08-19T04:34:53;99934.16;;;21.58;54.16
61484;BME280;47349;55.640;37.692;2022-08-19T04:38:20;99942.19;;;21.65;54.05
61484;BME280;47349;55.640;37.692;2022-08-19T05:02:32;99903.81;;;21.83;52.87
61484;BME280;47349;55.640;37.692;2022-08-19T05:05:17;99941.00;;;22.01;53.38
61484;BME280;47349;55.640;37.692;2022-08-19T05:09:41;99898.81;;;21.80;53.31
61484;BME280;47349;55.640;37.692;2022-08-19T05:14:33;99941.22;;;21.99;53.84
61484;BME280;47349;55.640;37.692;2022-08-19T05:25:14;99918.34;;;22.00;53.28
61484;BME280;47349;55.640;37.692;2022-08-19T05:29:54;99949.94;;;22.25;53.12
61484;BME280;47349;55.640;37.692;2022-08-19T05:38:31;99935.19;;;22.43;51.82
61484;BME280;47349;55.640;37.692;2022-08-19T05:41:48;99903.50;;;22.25;52.44
61484;BME280;47349;55.640;37.692;2022-08-19T05:50:35;99906.25;;;22.25;52.06
61484;BME280;47349;55.640;37.692;2022-08-19T05:55:35;99911.28;;;22.33;52.27
61484;BME280;47349;55.640;37.692;2022-08-19T05:59:47;99919.63;;;22.43;51.66
61484;BME280;47349;55.640;37.692;2022-08-19T06:02:40;99935.56;;;22.63;52.05
61484;BME280;47349;55.640;37.692;2022-08-19T06:05:23;99925.53;;;22.69;51.51
61484;BME280;47349;55.640;37.692;2022-08-19T06:14:22;99942.34;;;22.94;50.97
61484;BME280;47349;55.640;37.692;2022-08-19T06:23:43;99930.16;;;23.02;50.57
61484;BME280;47349;55.640;37.692;2022-08-19T06:28:38;99919.47;;;23.00;50.78
61484;BME280;47349;55.640;37.692;2022-08-19T06:33:34;99913.06;;;23.12;50.33
61484;BME280;47349;55.640;37.692;2022-08-19T06:38:17;99906.38;;;23.02;50.31
61484;BME280;47349;55.640;37.692;2022-08-19T06:42:49;99920.44;;;23.11;50.45
61484;BME280;47349;55.640;37.692;2022-08-19T06:47:53;99935.91;;;23.44;49.97
61484;BME280;47349;55.640;37.692;2022-08-19T06:53:12;99916.38;;;23.14;49.79
61484;BME280;47349;55.640;37.692;2022-08-19T06:57:40;99917.72;;;23.33;49.98
61484;BME280;47349;55.640;37.692;2022-08-19T07:02:14;99926.91;;;23.66;49.21
61484;BME280;47349;55.640;37.692;2022-08-19T07:11:26;99914.16;;;23.98;48.34
61484;BME280;47349;55.640;37.692;2022-08-19T07:16:08;99951.09;;;24.55;48.37
61484;BME280;47349;55.640;37.692;2022-08-19T07:20:36;99950.47;;;24.80;48.48
61484;BME280;47349;55.640;37.692;2022-08-19T07:25:21;99937.53;;;25.07;47.21
61484;BME280;47349;55.640;37.692;2022-08-19T07:30:00;99943.78;;;25.03;45.98
61484;BME280;47349;55.640;37.692;2022-08-19T07:34:17;99932.47;;;24.94;46.00
61484;BME280;47349;55.640;37.692;2022-08-19T07:37:46;99924.22;;;24.89;45.22
61484;BME280;47349;55.640;37.692;2022-08-19T07:40:57;99924.81;;;24.91;45.35
61484;BME280;47349;55.640;37.692;2022-08-19T07:43:48;99924.00;;;24.96;45.68
61484;BME280;47349;55.640;37.692;2022-08-19T07:46:42;99920.41;;;24.90;45.56
61484;BME280;47349;55.640;37.692;2022-08-19T07:49:36;99951.59;;;25.16;44.96
61484;BME280;47349;55.640;37.692;2022-08-19T07:53:48;99957.41;;;25.25;44.26
61484;BME280;47349;55.640;37.692;2022-08-19T07:58:47;99928.00;;;25.15;45.37
61484;BME280;47349;55.640;37.692;2022-08-19T08:03:28;99950.84;;;25.31;45.08
61484;BME280;47349;55.640;37.692;2022-08-19T08:07:51;99953.63;;;25.36;45.10
61484;BME280;47349;55.640;37.692;2022-08-19T08:12:34;99960.28;;;25.50;45.19
61484;BME280;47349;55.640;37.692;2022-08-19T08:17:07;99926.19;;;25.41;44.08
61484;BME280;47349;55.640;37.692;2022-08-19T08:19:52;99947.06;;;25.47;44.48
61484;BME280;47349;55.640;37.692;2022-08-19T08:28:41;99926.69;;;25.28;44.84
61484;BME280;47349;55.640;37.692;2022-08-19T08:33:48;99928.28;;;25.19;44.68
61484;BME280;47349;55.640;37.692;2022-08-19T08:38:52;99919.81;;;25.20;43.75
61484;BME280;47349;55.640;37.692;2022-08-19T08:44:22;99941.41;;;25.11;42.76
61484;BME280;47349;55.640;37.692;2022-08-19T08:59:19;99966.53;;;26.03;40.69
61484;BME280;47349;55.640;37.692;2022-08-19T09:04:33;99936.59;;;26.02;41.71
61484;BME280;47349;55.640;37.692;2022-08-19T09:18:40;99924.06;;;25.53;42.31
61484;BME280;47349;55.640;37.692;2022-08-19T12:13:05;99947.72;;;28.62;31.06
61484;BME280;47349;55.640;37.692;2022-08-19T12:16:44;99967.09;;;28.52;32.20
61484;BME280;47349;55.640;37.692;2022-08-19T12:19:32;99959.69;;;28.48;32.50
61484;BME280;47349;55.640;37.692;2022-08-19T12:22:18;99943.81;;;28.34;32.64
61484;BME280;47349;55.640;37.692;2022-08-19T12:37:23;99948.75;;;28.32;33.34
61484;BME280;47349;55.640;37.692;2022-08-19T12:41:39;99985.69;;;28.36;33.19
61484;BME280;47349;55.640;37.692;2022-08-19T12:45:54;99979.88;;;28.77;32.38
61484;BME280;47349;55.640;37.692;2022-08-19T12:48:37;99955.16;;;28.96;32.33
61484;BME280;47349;55.640;37.692;2022-08-19T12:51:10;99962.59;;;29.25;32.15
61484;BME280;47349;55.640;37.692;2022-08-19T12:53:58;99975.19;;;29.36;32.33
61484;BME280;47349;55.640;37.692;2022-08-19T12:56:40;99960.50;;;29.40;31.74
61484;BME280;47349;55.640;37.692;2022-08-19T12:59:27;99946.38;;;29.42;31.60
61484;BME280;47349;55.640;37.692;2022-08-19T13:02:32;99976.03;;;29.60;31.59
61484;BME280;47349;55.640;37.692;2022-08-19T13:05:45;99972.91;;;29.14;31.80
61484;BME280;47349;55.640;37.692;2022-08-19T13:08:27;99988.69;;;29.37;31.88
61484;BME280;47349;55.640;37.692;2022-08-19T13:11:12;99982.69;;;29.06;32.41
61484;BME280;47349;55.640;37.692;2022-08-19T13:13:55;99965.56;;;28.36;33.29
61484;BME280;47349;55.640;37.692;2022-08-19T13:16:38;99978.56;;;27.81;33.99
61484;BME280;47349;55.640;37.692;2022-08-19T13:19:10;99977.72;;;27.70;34.10
61484;BME280;47349;55.640;37.692;2022-08-19T13:21:54;99945.38;;;27.41;35.15
61484;BME280;47349;55.640;37.692;2022-08-19T13:24:37;99947.63;;;27.24;35.17
61484;BME280;47349;55.640;37.692;2022-08-19T13:27:22;99950.06;;;27.26;35.68
61484;BME280;47349;55.640;37.692;2022-08-19T13:30:09;99960.03;;;27.11;35.58
61484;BME280;47349;55.640;37.692;2022-08-19T13:33:51;99974.31;;;26.93;35.93
61484;BME280;47349;55.640;37.692;2022-08-19T13:37:05;99982.31;;;26.95;36.50
61484;BME280;47349;55.640;37.692;2022-08-19T13:39:52;99997.72;;;26.85;36.31
61484;BME280;47349;55.640;37.692;2022-08-19T13:42:37;99975.44;;;26.67;36.74
61484;BME280;47349;55.640;37.692;2022-08-19T13:46:09;99979.28;;;26.45;37.13
61484;BME280;47349;55.640;37.692;2022-08-19T13:51:08;99998.53;;;26.45;37.25
61484;BME280;47349;55.640;37.692;2022-08-19T13:55:06;99981.13;;;26.14;37.42
61484;BME280;47349;55.640;37.692;2022-08-19T13:57:53;99992.44;;;26.33;37.40
61484;BME280;47349;55.640;37.692;2022-08-19T14:00:46;100008.13;;;26.43;37.34
61484;BME280;47349;55.640;37.692;2022-08-19T14:03:28;99982.53;;;26.27;37.41
61484;BME280;47349;55.640;37.692;2022-08-19T14:06:11;99988.03;;;26.27;37.34
61484;BME280;47349;55.640;37.692;2022-08-19T14:09:14;99993.22;;;26.23;37.88
61484;BME280;47349;55.640;37.692;2022-08-19T14:12:42;99975.84;;;25.92;38.12
61484;BME280;47349;55.640;37.692;2022-08-19T14:15:35;100015.47;;;26.11;38.42
61484;BME280;47349;55.640;37.692;2022-08-19T14:18:26;100003.03;;;25.88;38.65
61484;BME280;47349;55.640;37.692;2022-08-19T14:21:28;100024.72;;;25.90;38.72
61484;BME280;47349;55.640;37.692;2022-08-19T14:24:15;100003.19;;;25.72;38.53
61484;BME280;47349;55.640;37.692;2022-08-19T14:26:59;99978.09;;;25.48;38.75
61484;BME280;47349;55.640;37.692;2022-08-19T14:31:02;100015.69;;;25.47;38.72
61484;BME280;47349;55.640;37.692;2022-08-19T14:34:56;99995.91;;;25.40;38.81
61484;BME280;47349;55.640;37.692;2022-08-19T14:37:55;100005.53;;;25.48;39.22
61484;BME280;47349;55.640;37.692;2022-08-19T14:40:38;99990.31;;;25.20;39.36
61484;BME280;47349;55.640;37.692;2022-08-19T14:43:27;100029.38;;;25.42;39.25
61484;BME280;47349;55.640;37.692;2022-08-19T14:46:17;100017.19;;;25.23;39.51
61484;BME280;47349;55.640;37.692;2022-08-19T14:49:45;100026.63;;;25.42;39.44
61484;BME280;47349;55.640;37.692;2022-08-19T14:53:33;100008.75;;;25.29;39.25
61484;BME280;47349;55.640;37.692;2022-08-19T14:57:37;100020.63;;;25.45;39.17
61484;BME280;47349;55.640;37.692;2022-08-19T15:00:19;100018.72;;;25.46;39.05
61484;BME280;47349;55.640;37.692;2022-08-19T15:02:58;99995.25;;;25.28;39.19
61484;BME280;47349;55.640;37.692;2022-08-19T15:05:42;99993.72;;;25.42;39.30
61484;BME280;47349;55.640;37.692;2022-08-19T15:08:31;100009.69;;;25.55;39.14
61484;BME280;47349;55.640;37.692;2022-08-19T15:11:22;99991.53;;;25.44;39.19
61484;BME280;47349;55.640;37.692;2022-08-19T15:14:04;100010.78;;;25.49;39.33
61484;BME280;47349;55.640;37.692;2022-08-19T15:16:46;100002.97;;;25.31;39.22
61484;BME280;47349;55.640;37.692;2022-08-19T15:19:33;99986.97;;;25.18;40.02
61484;BME280;47349;55.640;37.692;2022-08-19T15:22:20;100012.25;;;25.20;40.08
61484;BME280;47349;55.640;37.692;2022-08-19T15:25:04;100001.25;;;25.15;39.75
61484;BME280;47349;55.640;37.692;2022-08-19T15:28:15;100015.19;;;25.13;39.99
61484;BME280;47349;55.640;37.692;2022-08-19T15:32:09;100020.44;;;25.15;40.38
61484;BME280;47349;55.640;37.692;2022-08-19T15:34:46;100019.03;;;25.12;40.13
61484;BME280;47349;55.640;37.692;2022-08-19T15:37:31;100035.00;;;25.20;40.42
61484;BME280;47349;55.640;37.692;2022-08-19T15:41:02;100037.47;;;25.22;40.17
61484;BME280;47349;55.640;37.692;2022-08-19T15:43:59;100042.16;;;25.21;40.45
61484;BME280;47349;55.640;37.692;2022-08-19T15:46:50;100016.25;;;25.07;40.62
61484;BME280;47349;55.640;37.692;2022-08-19T15:49:35;100068.84;;;25.31;40.71
61484;BME280;47349;55.640;37.692;2022-08-19T15:52:53;100031.63;;;25.08;40.63
61484;BME280;47349;55.640;37.692;2022-08-19T15:55:56;100038.91;;;24.97;40.97
61484;BME280;47349;55.640;37.692;2022-08-19T15:58:41;100059.28;;;25.06;41.13
61484;BME280;47349;55.640;37.692;2022-08-19T16:01:43;100057.28;;;24.97;41.19
61484;BME280;47349;55.640;37.692;2022-08-19T16:06:18;100054.50;;;24.92;40.96
61484;BME280;47349;55.640;37.692;2022-08-19T16:09:29;100087.00;;;25.05;40.57
61484;BME280;47349;55.640;37.692;2022-08-19T16:12:17;100084.75;;;25.02;40.98
61484;BME280;47349;55.640;37.692;2022-08-19T16:15:01;100080.06;;;24.97;40.69
61484;BME280;47349;55.640;37.692;2022-08-19T16:17:50;100070.88;;;24.81;40.79
61484;BME280;47349;55.640;37.692;2022-08-19T16:20:34;100078.03;;;24.87;40.90
61484;BME280;47349;55.640;37.692;2022-08-19T16:24:05;100058.75;;;24.77;40.94
61484;BME280;47349;55.640;37.692;2022-08-19T16:26:49;100045.75;;;24.63;41.05
61484;BME280;47349;55.640;37.692;2022-08-19T16:29:34;100068.31;;;24.75;41.00
61484;BME280;47349;55.640;37.692;2022-08-19T16:32:26;100072.09;;;24.69;41.16
61484;BME280;47349;55.640;37.692;2022-08-19T16:35:30;100087.94;;;24.61;41.19
61484;BME280;47349;55.640;37.692;2022-08-19T16:38:28;100080.44;;;24.52;41.19
61484;BME280;47349;55.640;37.692;2022-08-19T16:42:18;100091.66;;;24.50;41.43
61484;BME280;47349;55.640;37.692;2022-08-19T16:45:39;100107.47;;;24.43;41.35
61484;BME280;47349;55.640;37.692;2022-08-19T16:48:35;100079.16;;;24.16;41.72
61484;BME280;47349;55.640;37.692;2022-08-19T16:51:42;100103.00;;;24.15;41.55
61484;BME280;47349;55.640;37.692;2022-08-19T16:54:46;100097.88;;;24.02;41.89
61484;BME280;47349;55.640;37.692;2022-08-19T16:57:40;100071.97;;;23.88;41.89
61484;BME280;47349;55.640;37.692;2022-08-19T17:00:27;100118.00;;;23.91;42.01
61484;BME280;47349;55.640;37.692;2022-08-19T17:03:11;100120.09;;;23.83;42.14
61484;BME280;47349;55.640;37.692;2022-08-19T17:06:15;100098.25;;;23.67;42.27
61484;BME280;47349;55.640;37.692;2022-08-19T17:09:39;100120.78;;;23.74;42.11
61484;BME280;47349;55.640;37.692;2022-08-19T17:12:45;100116.78;;;23.81;42.24
61484;BME280;47349;55.640;37.692;2022-08-19T17:16:21;100114.47;;;23.73;42.36
61484;BME280;47349;55.640;37.692;2022-08-19T17:19:39;100136.34;;;23.90;42.37
61484;BME280;47349;55.640;37.692;2022-08-19T17:23:23;100111.34;;;23.65;42.19
61484;BME280;47349;55.640;37.692;2022-08-19T17:26:48;100120.13;;;23.67;41.75
61484;BME280;47349;55.640;37.692;2022-08-19T17:29:32;100132.94;;;23.83;42.06
61484;BME280;47349;55.640;37.692;2022-08-19T17:32:15;100142.84;;;23.84;41.90
61484;BME280;47349;55.640;37.692;2022-08-19T17:34:56;100136.22;;;23.80;42.10
61484;BME280;47349;55.640;37.692;2022-08-19T17:37:40;100111.00;;;23.61;41.94
61484;BME280;47349;55.640;37.692;2022-08-19T17:40:34;100117.28;;;23.62;42.20
61484;BME280;47349;55.640;37.692;2022-08-19T17:44:06;100098.72;;;23.47;42.01
61484;BME280;47349;55.640;37.692;2022-08-19T17:47:10;100140.38;;;23.66;42.09
61484;BME280;47349;55.640;37.692;2022-08-19T17:50:04;100145.84;;;23.66;41.23
61484;BME280;47349;55.640;37.692;2022-08-19T17:53:12;100141.34;;;23.59;41.46
61484;BME280;47349;55.640;37.692;2022-08-19T17:55:58;100132.47;;;23.52;40.88
61484;BME280;47349;55.640;37.692;2022-08-19T17:58:59;100134.88;;;23.49;40.38
61484;BME280;47349;55.640;37.692;2022-08-19T18:01:44;100142.94;;;23.55;40.27
61484;BME280;47349;55.640;37.692;2022-08-19T18:05:09;100120.69;;;23.35;39.76
61484;BME280;47349;55.640;37.692;2022-08-19T18:08:16;100143.69;;;23.51;39.79
61484;BME280;47349;55.640;37.692;2022-08-19T18:11:23;100148.81;;;23.47;39.81
61484;BME280;47349;55.640;37.692;2022-08-19T18:14:34;100118.41;;;23.27;39.67
61484;BME280;47349;55.640;37.692;2022-08-19T18:18:25;100116.16;;;23.24;39.43
61484;BME280;47349;55.640;37.692;2022-08-19T18:21:19;100129.25;;;23.22;39.56
61484;BME280;47349;55.640;37.692;2022-08-19T18:24:03;100129.16;;;23.17;39.48
61484;BME280;47349;55.640;37.692;2022-08-19T18:26:44;100151.97;;;23.22;39.00
61484;BME280;47349;55.640;37.692;2022-08-19T18:30:22;100143.31;;;23.14;38.46
61484;BME280;47349;55.640;37.692;2022-08-19T18:33:30;100140.50;;;23.08;38.44
61484;BME280;47349;55.640;37.692;2022-08-19T18:37:30;100126.66;;;22.98;38.38
61484;BME280;47349;55.640;37.692;2022-08-19T18:40:27;100141.25;;;23.04;38.42
61484;BME280;47349;55.640;37.692;2022-08-19T18:44:10;100138.75;;;23.02;38.97
61484;BME280;47349;55.640;37.692;2022-08-19T18:48:00;100136.06;;;22.91;38.21
61484;BME280;47349;55.640;37.692;2022-08-19T18:51:25;100141.31;;;22.92;38.27
61484;BME280;47349;55.640;37.692;2022-08-19T18:54:20;100150.56;;;22.91;38.24
61484;BME280;47349;55.640;37.692;2022-08-19T18:57:23;100153.91;;;22.93;38.22
61484;BME280;47349;55.640;37.692;2022-08-19T19:00:09;100136.41;;;22.66;38.01
61484;BME280;47349;55.640;37.692;2022-08-19T19:03:16;100148.84;;;22.73;38.39
61484;BME280;47349;55.640;37.692;2022-08-19T19:06:02;100143.63;;;22.72;38.20
61484;BME280;47349;55.640;37.692;2022-08-19T19:09:41;100141.88;;;22.66;38.19
61484;BME280;47349;55.640;37.692;2022-08-19T19:12:26;100137.38;;;22.60;38.42
61484;BME280;47349;55.640;37.692;2022-08-19T19:15:16;100163.81;;;22.71;38.04
61484;BME280;47349;55.640;37.692;2022-08-19T19:18:03;100147.63;;;22.52;38.29
61484;BME280;47349;55.640;37.692;2022-08-19T19:20:48;100141.72;;;22.44;38.28
61484;BME280;47349;55.640;37.692;2022-08-19T19:23:54;100149.41;;;22.47;38.38
61484;BME280;47349;55.640;37.692;2022-08-19T19:26:56;100152.25;;;22.52;38.19
61484;BME280;47349;55.640;37.692;2022-08-19T19:29:45;100142.09;;;22.36;38.40
61484;BME280;47349;55.640;37.692;2022-08-19T19:32:29;100138.19;;;22.31;38.26
61484;BME280;47349;55.640;37.692;2022-08-19T19:35:25;100138.69;;;22.17;38.27
61484;BME280;47349;55.640;37.692;2022-08-19T19:38:10;100161.13;;;22.30;38.72
61484;BME280;47349;55.640;37.692;2022-08-19T19:41:36;100150.44;;;22.17;38.69
61484;BME280;47349;55.640;37.692;2022-08-19T19:44:19;100153.78;;;22.19;38.77
61484;BME280;47349;55.640;37.692;2022-08-19T19:47:04;100174.31;;;22.22;38.77
61484;BME280;47349;55.640;37.692;2022-08-19T19:49:52;100157.81;;;22.05;38.35
61484;BME280;47349;55.640;37.692;2022-08-19T19:52:54;100173.44;;;22.10;38.23
61484;BME280;47349;55.640;37.692;2022-08-19T19:56:04;100176.69;;;22.06;37.85
61484;BME280;47349;55.640;37.692;2022-08-19T19:59:08;100160.66;;;21.87;38.40
61484;BME280;47349;55.640;37.692;2022-08-19T20:01:52;100176.44;;;21.96;38.42
61484;BME280;47349;55.640;37.692;2022-08-19T20:05:43;100160.06;;;21.85;38.84
61484;BME280;47349;55.640;37.692;2022-08-19T20:08:38;100145.47;;;21.79;39.08
61484;BME280;47349;55.640;37.692;2022-08-19T20:12:03;100150.81;;;21.74;38.69
61484;BME280;47349;55.640;37.692;2022-08-19T20:14:58;100173.59;;;21.91;38.74
61484;BME280;47349;55.640;37.692;2022-08-19T20:17:55;100159.25;;;21.72;39.00
61484;BME280;47349;55.640;37.692;2022-08-19T20:20:40;100184.41;;;21.86;38.56
61484;BME280;47349;55.640;37.692;2022-08-19T20:23:22;100175.84;;;21.71;38.87
61484;BME280;47349;55.640;37.692;2022-08-19T20:26:07;100176.91;;;21.70;38.77
61484;BME280;47349;55.640;37.692;2022-08-19T20:28:55;100164.47;;;21.62;38.84
61484;BME280;47349;55.640;37.692;2022-08-19T20:31:44;100143.00;;;21.42;38.51
61484;BME280;47349;55.640;37.692;2022-08-19T20:34:27;100168.38;;;21.54;38.50
61484;BME280;47349;55.640;37.692;2022-08-19T20:37:36;100188.06;;;21.57;38.11
61484;BME280;47349;55.640;37.692;2022-08-19T20:40:40;100185.06;;;21.46;38.13
61484;BME280;47349;55.640;37.692;2022-08-19T20:43:31;100197.78;;;21.52;38.12
61484;BME280;47349;55.640;37.692;2022-08-19T20:46:15;100173.56;;;21.33;38.04
61484;BME280;47349;55.640;37.692;2022-08-19T20:49:31;100194.81;;;21.42;37.92
61484;BME280;47349;55.640;37.692;2022-08-19T20:52:43;100195.59;;;21.31;38.11